Wetterdaten: Woche 13.03.17 - 19.03.17 (KW11)
Datum Zeit Temp. I. Temp. A. Feuchte I. Feuchte A. Luftdruck Regen Wind Richtung Sonnenschein UV Solar Taupunkt Windchill Windben
13.03.2017 00:00 23,9 C 0,8 C 54 % 78 % 1022,3 hPa 0,0 l/m 1,8 km/h (1 Bft) O-NO 0,00 h 0,0 UV-I 0 W/m -2,5 C 0,8 C 5,3 km/h (1 Bft)
13.03.2017 01:00 23,7 C 0,4 C 54 % 81 % 1022,7 hPa 0,0 l/m 1,4 km/h (1 Bft) O-NO 0,00 h 0,0 UV-I 0 W/m -2,5 C 0,4 C 4,0 km/h (1 Bft)
13.03.2017 02:00 23,6 C -0,1 C 54 % 83 % 1022,6 hPa 0,0 l/m 1,0 km/h (0 Bft) O-NO 0,00 h 0,0 UV-I 0 W/m -2,6 C -0,1 C 2,7 km/h (1 Bft)
13.03.2017 03:00 23,4 C -1,0 C 54 % 84 % 1023,1 hPa 0,0 l/m 0,2 km/h (0 Bft) NW 0,00 h 0,0 UV-I 0 W/m -3,4 C -1,0 C 0,6 km/h (0 Bft)
13.03.2017 04:00 23,4 C -2,1 C 54 % 87 % 1023,3 hPa 0,0 l/m 0,1 km/h (0 Bft) O 0,00 h 0,0 UV-I 0 W/m -4,0 C -2,1 C 0,7 km/h (0 Bft)
13.03.2017 05:00 23,3 C -2,4 C 54 % 89 % 1023,8 hPa 0,0 l/m 0,1 km/h (0 Bft) O-NO 0,00 h 0,0 UV-I 0 W/m -4,0 C -2,4 C 0,3 km/h (0 Bft)
13.03.2017 06:00 23,3 C -2,8 C 54 % 90 % 1024,4 hPa 0,0 l/m 0,0 km/h (0 Bft) O-NO 0,00 h 0,0 UV-I 19 W/m -4,2 C -2,8 C 0,1 km/h (0 Bft)
13.03.2017 07:00 23,5 C -2,4 C 54 % 92 % 1025,3 hPa 0,0 l/m 0,0 km/h (0 Bft) N 0,12 h 0,5 UV-I 85 W/m -3,5 C -2,4 C 0,0 km/h (0 Bft)
13.03.2017 08:00 23,6 C 0,7 C 55 % 89 % 1025,8 hPa 0,0 l/m 0,0 km/h (0 Bft) N 0,68 h 0,7 UV-I 235 W/m -0,9 C 0,7 C 0,0 km/h (0 Bft)
13.03.2017 09:00 23,6 C 3,7 C 54 % 76 % 1026,1 hPa 0,0 l/m 0,9 km/h (0 Bft) O-SO 0,80 h 1,2 UV-I 311 W/m -0,1 C 3,6 C 2,2 km/h (1 Bft)
13.03.2017 10:00 23,6 C 5,6 C 48 % 66 % 1026,4 hPa 0,0 l/m 1,8 km/h (1 Bft) SO 1,00 h 2,1 UV-I 535 W/m -0,4 C 5,6 C 5,5 km/h (1 Bft)
13.03.2017 11:00 23,4 C 7,4 C 44 % 59 % 1026,4 hPa 0,0 l/m 0,9 km/h (0 Bft) SO 1,00 h 2,4 UV-I 541 W/m -0,2 C 7,4 C 3,2 km/h (1 Bft)
13.03.2017 12:00 23,4 C 9,1 C 42 % 52 % 1026,3 hPa 0,0 l/m 0,6 km/h (0 Bft) SO 1,00 h 2,8 UV-I 608 W/m -0,3 C 9,1 C 1,6 km/h (1 Bft)
13.03.2017 13:00 23,0 C 9,9 C 38 % 49 % 1025,9 hPa 0,0 l/m 0,8 km/h (0 Bft) W-SW 1,00 h 2,5 UV-I 572 W/m -0,3 C 9,9 C 2,4 km/h (1 Bft)
13.03.2017 14:00 23,3 C 9,9 C 38 % 47 % 1025,6 hPa 0,0 l/m 1,2 km/h (1 Bft) W-SW 1,00 h 1,8 UV-I 439 W/m -0,9 C 9,9 C 3,1 km/h (1 Bft)
13.03.2017 15:00 22,9 C 9,5 C 35 % 46 % 1025,6 hPa 0,0 l/m 0,6 km/h (0 Bft) S 0,63 h 0,9 UV-I 197 W/m -1,5 C 9,5 C 1,9 km/h (1 Bft)
13.03.2017 16:00 23,0 C 8,9 C 37 % 50 % 1025,8 hPa 0,0 l/m 0,1 km/h (0 Bft) W-SW 0,00 h 0,5 UV-I 91 W/m -1,1 C 8,9 C 0,4 km/h (0 Bft)
13.03.2017 17:00 23,4 C 8,5 C 39 % 52 % 1026,4 hPa 0,0 l/m 0,7 km/h (0 Bft) W 0,00 h 0,0 UV-I 30 W/m -0,9 C 8,5 C 1,6 km/h (1 Bft)
13.03.2017 18:00 23,5 C 7,7 C 40 % 55 % 1026,9 hPa 0,0 l/m 0,0 km/h (0 Bft) W 0,00 h 0,0 UV-I 5 W/m -0,6 C 7,7 C 0,1 km/h (0 Bft)
13.03.2017 19:00 23,7 C 6,8 C 42 % 64 % 1027,1 hPa 0,0 l/m 0,0 km/h (0 Bft) N 0,00 h 0,0 UV-I 0 W/m 0,3 C 6,8 C 0,0 km/h (0 Bft)
13.03.2017 20:00 23,8 C 5,6 C 43 % 70 % 1027,4 hPa 0,0 l/m 0,0 km/h (0 Bft) N 0,00 h 0,0 UV-I 0 W/m 0,6 C 5,6 C 0,0 km/h (0 Bft)
13.03.2017 21:00 24,0 C 4,8 C 44 % 75 % 1028,2 hPa 0,0 l/m 0,0 km/h (0 Bft) N 0,00 h 0,0 UV-I 0 W/m 0,7 C 4,8 C 0,0 km/h (0 Bft)
13.03.2017 22:00 24,2 C 3,9 C 44 % 78 % 1028,8 hPa 0,0 l/m 0,0 km/h (0 Bft) N 0,00 h 0,0 UV-I 0 W/m 0,3 C 3,9 C 0,0 km/h (0 Bft)
13.03.2017 23:00 23,8 C 3,1 C 44 % 81 % 1028,9 hPa 0,0 l/m 0,0 km/h (0 Bft) N 0,00 h 0,0 UV-I 0 W/m 0,2 C 3,1 C 0,0 km/h (0 Bft)
14.03.2017 00:00 23,4 C 2,5 C 45 % 83 % 1029,1 hPa 0,0 l/m 0,0 km/h (0 Bft) N 0,00 h 0,0 UV-I 0 W/m -0,0 C 2,5 C 0,0 km/h (0 Bft)
14.03.2017 01:00 23,3 C 1,3 C 45 % 85 % 1029,6 hPa 0,0 l/m 0,0 km/h (0 Bft) N 0,00 h 0,0 UV-I 0 W/m -1,0 C 1,3 C 0,0 km/h (0 Bft)
14.03.2017 02:00 23,2 C 0,0 C 45 % 87 % 1029,6 hPa 0,0 l/m 0,0 km/h (0 Bft) N 0,00 h 0,0 UV-I 0 W/m -1,9 C 0,0 C 0,0 km/h (0 Bft)
14.03.2017 03:00 23,1 C -0,8 C 46 % 89 % 1029,8 hPa 0,0 l/m 0,0 km/h (0 Bft) N 0,00 h 0,0 UV-I 0 W/m -2,5 C -0,8 C 0,0 km/h (0 Bft)
14.03.2017 04:00 23,0 C -1,2 C 46 % 90 % 1030,0 hPa 0,0 l/m 0,0 km/h (0 Bft) N 0,00 h 0,0 UV-I 0 W/m -2,6 C -1,2 C 0,0 km/h (0 Bft)
14.03.2017 05:00 22,9 C -0,7 C 46 % 92 % 1030,2 hPa 0,0 l/m 0,0 km/h (0 Bft) N 0,00 h 0,0 UV-I 0 W/m -1,8 C -0,7 C 0,0 km/h (0 Bft)
14.03.2017 06:00 22,9 C 0,2 C 46 % 93 % 1030,5 hPa 0,0 l/m 0,0 km/h (0 Bft) N 0,00 h 0,0 UV-I 6 W/m -0,8 C 0,2 C 0,0 km/h (0 Bft)
14.03.2017 07:00 23,1 C 1,1 C 47 % 93 % 1031,0 hPa 0,0 l/m 0,0 km/h (0 Bft) N 0,00 h 0,0 UV-I 23 W/m 0,1 C 1,1 C 0,0 km/h (0 Bft)
14.03.2017 08:00 22,8 C 2,3 C 46 % 91 % 1031,7 hPa 0,0 l/m 0,0 km/h (0 Bft) N 0,00 h 0,6 UV-I 71 W/m 0,9 C 2,3 C 0,0 km/h (0 Bft)
14.03.2017 09:00 22,7 C 3,7 C 47 % 81 % 1032,1 hPa 0,0 l/m 0,0 km/h (0 Bft) N 0,12 h 0,7 UV-I 105 W/m 0,8 C 3,7 C 0,0 km/h (0 Bft)
14.03.2017 10:00 23,0 C 5,2 C 48 % 79 % 1031,9 hPa 0,0 l/m 0,8 km/h (0 Bft) S-SO 0,63 h 1,2 UV-I 182 W/m 1,8 C 5,2 C 1,9 km/h (1 Bft)
14.03.2017 11:00 23,2 C 7,2 C 49 % 74 % 1031,8 hPa 0,0 l/m 1,4 km/h (1 Bft) W-SW 1,00 h 1,5 UV-I 214 W/m 3,0 C 7,2 C 3,3 km/h (1 Bft)
14.03.2017 12:00 23,2 C 9,2 C 47 % 70 % 1031,4 hPa 0,0 l/m 2,9 km/h (1 Bft) W-SW 1,00 h 2,1 UV-I 347 W/m 4,1 C 9,2 C 6,3 km/h (2 Bft)
14.03.2017 13:00 23,2 C 9,6 C 46 % 67 % 1031,1 hPa 0,0 l/m 3,0 km/h (1 Bft) W-SW 1,00 h 1,5 UV-I 234 W/m 3,7 C 9,5 C 6,0 km/h (2 Bft)
14.03.2017 14:00 23,1 C 9,7 C 44 % 66 % 1030,8 hPa 0,0 l/m 2,9 km/h (1 Bft) W-SW 0,95 h 1,3 UV-I 217 W/m 3,6 C 9,7 C 6,2 km/h (2 Bft)
14.03.2017 15:00 23,1 C 10,8 C 43 % 60 % 1030,2 hPa 0,0 l/m 4,1 km/h (1 Bft) SW 1,00 h 1,3 UV-I 342 W/m 3,3 C 10,8 C 8,3 km/h (2 Bft)
14.03.2017 16:00 23,1 C 10,6 C 42 % 60 % 1029,9 hPa 0,0 l/m 4,1 km/h (1 Bft) W-SW 0,22 h 0,6 UV-I 141 W/m 3,1 C 10,4 C 8,7 km/h (2 Bft)
14.03.2017 17:00 23,2 C 9,9 C 44 % 63 % 1030,1 hPa 0,0 l/m 2,2 km/h (1 Bft) W-SW 0,00 h 0,0 UV-I 36 W/m 3,3 C 9,9 C 5,0 km/h (1 Bft)
14.03.2017 18:00 23,4 C 9,0 C 46 % 67 % 1030,3 hPa 0,0 l/m 0,0 km/h (0 Bft) N 0,00 h 0,0 UV-I 5 W/m 3,2 C 9,0 C 0,0 km/h (0 Bft)
14.03.2017 19:00 23,6 C 7,8 C 46 % 70 % 1030,4 hPa 0,0 l/m 0,0 km/h (0 Bft) N 0,00 h 0,0 UV-I 0 W/m 2,7 C 7,8 C 0,0 km/h (0 Bft)
14.03.2017 20:00 24,0 C 6,1 C 46 % 76 % 1030,9 hPa 0,0 l/m 0,0 km/h (0 Bft) N 0,00 h 0,0 UV-I 0 W/m 2,2 C 6,1 C 0,0 km/h (0 Bft)
14.03.2017 21:00 24,4 C 4,6 C 46 % 82 % 1030,8 hPa 0,0 l/m 0,0 km/h (0 Bft) N 0,00 h 0,0 UV-I 0 W/m 1,7 C 4,6 C 0,0 km/h (0 Bft)
14.03.2017 22:00 24,4 C 3,7 C 47 % 85 % 1030,6 hPa 0,0 l/m 0,0 km/h (0 Bft) N 0,00 h 0,0 UV-I 0 W/m 1,5 C 3,7 C 0,0 km/h (0 Bft)
14.03.2017 23:00 24,0 C 3,3 C 47 % 87 % 1030,6 hPa 0,0 l/m 0,0 km/h (0 Bft) N 0,00 h 0,0 UV-I 0 W/m 1,3 C 3,3 C 0,0 km/h (0 Bft)
15.03.2017 00:00 23,7 C 2,9 C 47 % 88 % 1030,6 hPa 0,0 l/m 0,0 km/h (0 Bft) N 0,00 h 0,0 UV-I 0 W/m 1,1 C 2,9 C 0,0 km/h (0 Bft)
15.03.2017 01:00 23,5 C 2,1 C 47 % 88 % 1030,4 hPa 0,0 l/m 0,0 km/h (0 Bft) N 0,00 h 0,0 UV-I 0 W/m 0,3 C 2,1 C 0,0 km/h (0 Bft)
15.03.2017 02:00 23,3 C 1,4 C 48 % 90 % 1030,0 hPa 0,0 l/m 0,0 km/h (0 Bft) N 0,00 h 0,0 UV-I 0 W/m -0,1 C 1,4 C 0,0 km/h (0 Bft)
15.03.2017 03:00 23,2 C 1,5 C 48 % 92 % 1029,8 hPa 0,0 l/m 0,0 km/h (0 Bft) N 0,00 h 0,0 UV-I 0 W/m 0,3 C 1,5 C 0,0 km/h (0 Bft)
15.03.2017 04:00 23,2 C 2,0 C 48 % 93 % 1029,6 hPa 0,0 l/m 0,0 km/h (0 Bft) N 0,00 h 0,0 UV-I 0 W/m 0,9 C 2,0 C 0,0 km/h (0 Bft)
15.03.2017 05:00 23,1 C 2,0 C 48 % 92 % 1029,5 hPa 0,0 l/m 0,0 km/h (0 Bft) N 0,00 h 0,0 UV-I 0 W/m 0,9 C 2,0 C 0,0 km/h (0 Bft)
15.03.2017 06:00 23,1 C 1,6 C 49 % 92 % 1030,0 hPa 0,0 l/m 0,0 km/h (0 Bft) N 0,00 h 0,0 UV-I 5 W/m 0,5 C 1,6 C 0,0 km/h (0 Bft)
15.03.2017 07:00 23,3 C 2,0 C 49 % 93 % 1030,8 hPa 0,0 l/m 0,0 km/h (0 Bft) N 0,00 h 0,0 UV-I 13 W/m 1,0 C 2,0 C 0,0 km/h (0 Bft)
15.03.2017 08:00 23,4 C 3,2 C 49 % 94 % 1030,8 hPa 0,0 l/m 0,0 km/h (0 Bft) N 0,05 h 0,7 UV-I 82 W/m 2,3 C 3,2 C 0,0 km/h (0 Bft)
15.03.2017 09:00 23,4 C 6,1 C 49 % 90 % 1030,9 hPa 0,0 l/m 0,0 km/h (0 Bft) N 0,80 h 1,1 UV-I 200 W/m 4,7 C 6,1 C 0,1 km/h (0 Bft)
15.03.2017 10:00 23,3 C 8,5 C 49 % 82 % 1031,1 hPa 0,0 l/m 1,7 km/h (1 Bft) NW 0,75 h 1,3 UV-I 202 W/m 5,7 C 8,2 C 3,2 km/h (1 Bft)
15.03.2017 11:00 23,6 C 10,7 C 49 % 70 % 1030,4 hPa 0,0 l/m 5,7 km/h (1 Bft) NW 1,00 h 2,2 UV-I 340 W/m 5,5 C 10,3 C 10,1 km/h (2 Bft)
15.03.2017 12:00 23,7 C 12,2 C 49 % 62 % 1030,2 hPa 0,0 l/m 4,4 km/h (1 Bft) NW 1,00 h 2,6 UV-I 462 W/m 5,1 C 12,0 C 8,8 km/h (2 Bft)
15.03.2017 13:00 23,9 C 12,9 C 50 % 55 % 1029,8 hPa 0,0 l/m 7,4 km/h (2 Bft) NW 1,00 h 2,2 UV-I 375 W/m 4,1 C 11,5 C 12,3 km/h (3 Bft)
15.03.2017 14:00 23,9 C 13,3 C 49 % 52 % 1029,4 hPa 0,0 l/m 7,4 km/h (2 Bft) NW 1,00 h 1,9 UV-I 384 W/m 3,5 C 11,9 C 13,0 km/h (3 Bft)
15.03.2017 15:00 23,6 C 13,1 C 45 % 52 % 1029,1 hPa 0,0 l/m 7,5 km/h (2 Bft) W-NW 0,70 h 1,2 UV-I 250 W/m 3,3 C 11,7 C 13,5 km/h (3 Bft)
15.03.2017 16:00 22,8 C 12,2 C 46 % 57 % 1028,6 hPa 0,0 l/m 3,8 km/h (1 Bft) W-NW 0,58 h 0,7 UV-I 175 W/m 4,0 C 11,7 C 7,4 km/h (2 Bft)
15.03.2017 17:00 23,7 C 11,1 C 52 % 62 % 1028,6 hPa 0,0 l/m 1,5 km/h (1 Bft) W 0,00 h 0,0 UV-I 36 W/m 4,1 C 11,1 C 4,4 km/h (1 Bft)
15.03.2017 18:00 23,7 C 9,4 C 52 % 69 % 1028,9 hPa 0,0 l/m 0,1 km/h (0 Bft) W-NW 0,00 h 0,0 UV-I 6 W/m 3,9 C 9,4 C 0,4 km/h (0 Bft)
15.03.2017 19:00 24,0 C 8,1 C 52 % 73 % 1029,3 hPa 0,0 l/m 0,0 km/h (0 Bft) N 0,00 h 0,0 UV-I 0 W/m 3,7 C 8,1 C 0,0 km/h (0 Bft)
15.03.2017 20:00 24,0 C 6,4 C 52 % 79 % 1029,4 hPa 0,0 l/m 0,0 km/h (0 Bft) N 0,00 h 0,0 UV-I 0 W/m 3,0 C 6,4 C 0,0 km/h (0 Bft)
15.03.2017 21:00 24,4 C 4,6 C 52 % 83 % 1029,5 hPa 0,0 l/m 0,0 km/h (0 Bft) N 0,00 h 0,0 UV-I 0 W/m 2,0 C 4,6 C 0,0 km/h (0 Bft)
15.03.2017 22:00 24,5 C 3,1 C 52 % 86 % 1029,7 hPa 0,0 l/m 0,0 km/h (0 Bft) N 0,00 h 0,0 UV-I 0 W/m 1,0 C 3,1 C 0,0 km/h (0 Bft)
15.03.2017 23:00 24,1 C 2,0 C 52 % 89 % 1029,6 hPa 0,0 l/m 0,0 km/h (0 Bft) N 0,00 h 0,0 UV-I 0 W/m 0,4 C 2,0 C 0,0 km/h (0 Bft)
16.03.2017 00:00 23,8 C 1,4 C 52 % 89 % 1029,2 hPa 0,0 l/m 0,0 km/h (0 Bft) N 0,00 h 0,0 UV-I 0 W/m -0,2 C 1,4 C 0,0 km/h (0 Bft)
16.03.2017 01:00 23,6 C 0,6 C 52 % 90 % 1029,0 hPa 0,0 l/m 0,0 km/h (0 Bft) N 0,00 h 0,0 UV-I 0 W/m -0,9 C 0,6 C 0,0 km/h (0 Bft)
16.03.2017 02:00 23,4 C 0,2 C 52 % 92 % 1028,5 hPa 0,0 l/m 0,0 km/h (0 Bft) N 0,00 h 0,0 UV-I 0 W/m -1,0 C 0,2 C 0,0 km/h (0 Bft)
16.03.2017 03:00 23,3 C 0,2 C 52 % 92 % 1028,1 hPa 0,0 l/m 0,0 km/h (0 Bft) N 0,00 h 0,0 UV-I 0 W/m -0,9 C 0,2 C 0,0 km/h (0 Bft)
16.03.2017 04:00 23,3 C 0,2 C 52 % 93 % 1027,8 hPa 0,0 l/m 0,0 km/h (0 Bft) N 0,00 h 0,0 UV-I 0 W/m -0,8 C 0,2 C 0,0 km/h (0 Bft)
16.03.2017 05:00 23,2 C 0,5 C 52 % 93 % 1027,4 hPa 0,0 l/m 0,0 km/h (0 Bft) N 0,00 h 0,0 UV-I 0 W/m -0,4 C 0,5 C 0,0 km/h (0 Bft)
16.03.2017 06:00 23,2 C 0,7 C 52 % 94 % 1027,3 hPa 0,0 l/m 0,0 km/h (0 Bft) N 0,00 h 0,0 UV-I 12 W/m -0,1 C 0,7 C 0,0 km/h (0 Bft)
16.03.2017 07:00 23,5 C 0,9 C 53 % 94 % 1027,4 hPa 0,0 l/m 0,0 km/h (0 Bft) N 0,20 h 0,5 UV-I 73 W/m 0,1 C 0,9 C 0,0 km/h (0 Bft)
16.03.2017 08:00 23,3 C 4,8 C 51 % 89 % 1027,3 hPa 0,0 l/m 0,0 km/h (0 Bft) N 1,00 h 0,9 UV-I 312 W/m 3,1 C 4,8 C 0,0 km/h (0 Bft)
16.03.2017 09:00 23,0 C 8,4 C 47 % 75 % 1026,9 hPa 0,0 l/m 0,0 km/h (0 Bft) N 1,00 h 1,7 UV-I 470 W/m 4,1 C 8,4 C 0,2 km/h (0 Bft)
16.03.2017 10:00 22,3 C 11,0 C 40 % 52 % 1026,3 hPa 0,0 l/m 1,6 km/h (1 Bft) W-SW 1,00 h 2,5 UV-I 573 W/m 1,4 C 11,0 C 4,4 km/h (1 Bft)
16.03.2017 11:00 22,1 C 12,9 C 42 % 45 % 1025,7 hPa 0,0 l/m 1,7 km/h (1 Bft) W 1,00 h 3,1 UV-I 634 W/m 1,2 C 13,0 C 3,7 km/h (1 Bft)
16.03.2017 12:00 21,7 C 14,3 C 37 % 39 % 1025,1 hPa 0,0 l/m 2,3 km/h (1 Bft) S-SW 1,00 h 3,3 UV-I 644 W/m 0,4 C 14,2 C 5,1 km/h (1 Bft)
16.03.2017 13:00 21,4 C 14,9 C 35 % 37 % 1024,2 hPa 0,0 l/m 1,8 km/h (1 Bft) S-SO 1,00 h 2,9 UV-I 578 W/m 0,4 C 14,8 C 4,8 km/h (1 Bft)
16.03.2017 14:00 21,6 C 15,6 C 35 % 34 % 1023,4 hPa 0,0 l/m 3,1 km/h (1 Bft) S 1,00 h 2,3 UV-I 519 W/m -0,1 C 15,5 C 7,0 km/h (2 Bft)
16.03.2017 15:00 21,4 C 15,4 C 32 % 32 % 1022,9 hPa 0,0 l/m 3,7 km/h (1 Bft) W-SW 1,00 h 1,4 UV-I 388 W/m -1,1 C 15,3 C 7,7 km/h (2 Bft)
16.03.2017 16:00 21,2 C 15,0 C 29 % 31 % 1022,4 hPa 0,0 l/m 2,7 km/h (1 Bft) W-SW 0,92 h 0,7 UV-I 231 W/m -2,0 C 15,0 C 5,8 km/h (2 Bft)
16.03.2017 17:00 20,9 C 13,7 C 31 % 33 % 1022,0 hPa 0,0 l/m 1,7 km/h (1 Bft) W-SW 0,00 h 0,0 UV-I 50 W/m -2,3 C 13,7 C 3,9 km/h (1 Bft)
16.03.2017 18:00 22,1 C 11,3 C 39 % 42 % 1021,6 hPa 0,0 l/m 0,0 km/h (0 Bft) N 0,00 h 0,0 UV-I 9 W/m -1,1 C 11,3 C 0,0 km/h (0 Bft)
16.03.2017 19:00 22,6 C 9,0 C 41 % 56 % 1021,5 hPa 0,0 l/m 0,0 km/h (0 Bft) N 0,00 h 0,0 UV-I 0 W/m 0,6 C 9,0 C 0,0 km/h (0 Bft)
16.03.2017 20:00 23,1 C 6,6 C 42 % 68 % 1021,4 hPa 0,0 l/m 0,0 km/h (0 Bft) N 0,00 h 0,0 UV-I 0 W/m 1,1 C 6,6 C 0,0 km/h (0 Bft)
16.03.2017 21:00 23,5 C 5,0 C 42 % 73 % 1021,1 hPa 0,0 l/m 0,0 km/h (0 Bft) N 0,00 h 0,0 UV-I 0 W/m 0,7 C 5,0 C 0,0 km/h (0 Bft)
16.03.2017 22:00 23,7 C 3,2 C 43 % 80 % 1020,7 hPa 0,0 l/m 0,0 km/h (0 Bft) N 0,00 h 0,0 UV-I 0 W/m 0,0 C 3,2 C 0,0 km/h (0 Bft)
16.03.2017 23:00 23,8 C 2,1 C 44 % 83 % 1020,1 hPa 0,0 l/m 0,0 km/h (0 Bft) N 0,00 h 0,0 UV-I 0 W/m -0,6 C 2,1 C 0,0 km/h (0 Bft)
17.03.2017 00:00 23,8 C 1,4 C 43 % 85 % 1019,5 hPa 0,0 l/m 0,0 km/h (0 Bft) N 0,00 h 0,0 UV-I 0 W/m -0,8 C 1,4 C 0,0 km/h (0 Bft)
17.03.2017 01:00 23,6 C 0,5 C 44 % 86 % 1019,1 hPa 0,0 l/m 0,0 km/h (0 Bft) N 0,00 h 0,0 UV-I 0 W/m -1,6 C 0,5 C 0,0 km/h (0 Bft)
17.03.2017 02:00 23,6 C -0,1 C 44 % 88 % 1018,3 hPa 0,0 l/m 0,0 km/h (0 Bft) N 0,00 h 0,0 UV-I 0 W/m -1,9 C -0,1 C 0,0 km/h (0 Bft)
17.03.2017 03:00 23,6 C -0,6 C 45 % 89 % 1017,8 hPa 0,0 l/m 0,0 km/h (0 Bft) N 0,00 h 0,0 UV-I 0 W/m -2,3 C -0,6 C 0,0 km/h (0 Bft)
17.03.2017 04:00 23,5 C -0,9 C 45 % 90 % 1017,0 hPa 0,0 l/m 0,0 km/h (0 Bft) N 0,00 h 0,0 UV-I 0 W/m -2,3 C -0,9 C 0,0 km/h (0 Bft)
17.03.2017 05:00 23,4 C -1,2 C 46 % 91 % 1016,3 hPa 0,0 l/m 0,0 km/h (0 Bft) N 0,00 h 0,0 UV-I 0 W/m -2,5 C -1,2 C 0,0 km/h (0 Bft)
17.03.2017 06:00 23,3 C -1,4 C 46 % 91 % 1016,0 hPa 0,0 l/m 0,0 km/h (0 Bft) N 0,00 h 0,0 UV-I 15 W/m -2,7 C -1,4 C 0,0 km/h (0 Bft)
17.03.2017 07:00 23,4 C -0,6 C 47 % 92 % 1015,6 hPa 0,0 l/m 0,0 km/h (0 Bft) N 0,30 h 0,5 UV-I 100 W/m -1,7 C -0,6 C 0,0 km/h (0 Bft)
17.03.2017 08:00 23,8 C 5,5 C 47 % 80 % 1015,4 hPa 0,0 l/m 1,3 km/h (1 Bft) S 1,00 h 0,9 UV-I 301 W/m 2,1 C 5,5 C 2,6 km/h (1 Bft)
17.03.2017 09:00 24,6 C 9,0 C 46 % 65 % 1014,7 hPa 0,0 l/m 4,9 km/h (1 Bft) N 1,00 h 1,6 UV-I 403 W/m 2,8 C 8,8 C 4,2 km/h (1 Bft)
17.03.2017 10:00 26,9 C 11,9 C 39 % 59 % 1014,0 hPa 0,0 l/m 4,0 km/h (1 Bft) N 1,00 h 2,4 UV-I 531 W/m 4,1 C 11,7 C 0,4 km/h (0 Bft)
17.03.2017 11:00 27,2 C 13,3 C 35 % 55 % 1013,8 hPa 0,0 l/m 3,2 km/h (1 Bft) N 1,00 h 2,4 UV-I 452 W/m 4,4 C 13,3 C 0,0 km/h (0 Bft)
17.03.2017 12:00 26,9 C 12,7 C 33 % 59 % 1013,5 hPa 0,0 l/m 3,2 km/h (1 Bft) N 0,67 h 1,2 UV-I 173 W/m 4,9 C 12,7 C 0,0 km/h (0 Bft)
17.03.2017 13:00 27,5 C 12,8 C 35 % 61 % 1012,5 hPa 0,0 l/m 3,2 km/h (1 Bft) N 0,48 h 1,3 UV-I 211 W/m 5,4 C 12,8 C 0,0 km/h (0 Bft)
17.03.2017 14:00 28,8 C 12,6 C 36 % 63 % 1012,2 hPa 0,0 l/m 3,2 km/h (1 Bft) N 0,03 h 0,7 UV-I 93 W/m 5,8 C 12,6 C 0,0 km/h (0 Bft)
17.03.2017 15:00 28,2 C 11,7 C 34 % 69 % 1012,0 hPa 0,0 l/m 3,2 km/h (1 Bft) N 0,00 h 0,6 UV-I 52 W/m 6,1 C 11,7 C 0,0 km/h (0 Bft)
17.03.2017 16:00 27,5 C 10,8 C 35 % 69 % 1012,1 hPa 0,0 l/m 3,2 km/h (1 Bft) N 0,00 h 0,0 UV-I 28 W/m 5,3 C 10,8 C 0,0 km/h (0 Bft)
17.03.2017 17:00 29,0 C 10,4 C 36 % 67 % 1011,9 hPa 0,0 l/m 3,2 km/h (1 Bft) N 0,00 h 0,0 UV-I 30 W/m 4,5 C 10,4 C 0,0 km/h (0 Bft)
17.03.2017 18:00 29,0 C 9,7 C 36 % 68 % 1011,9 hPa 0,0 l/m 3,2 km/h (1 Bft) N 0,00 h 0,0 UV-I 5 W/m 4,1 C 9,7 C 0,0 km/h (0 Bft)
17.03.2017 19:00 29,1 C 9,1 C 37 % 70 % 1011,7 hPa 0,0 l/m 3,2 km/h (1 Bft) N 0,00 h 0,0 UV-I 0 W/m 3,9 C 9,1 C 0,0 km/h (0 Bft)
17.03.2017 20:00 26,9 C 8,6 C 41 % 70 % 1012,1 hPa 0,0 l/m 4,1 km/h (1 Bft) W 0,00 h 0,0 UV-I 0 W/m 3,5 C 8,3 C 6,7 km/h (2 Bft)
17.03.2017 21:00 23,5 C 8,1 C 48 % 71 % 1012,1 hPa 0,0 l/m 3,9 km/h (1 Bft) W 0,00 h 0,0 UV-I 0 W/m 3,0 C 7,8 C 8,8 km/h (2 Bft)
17.03.2017 22:00 23,0 C 7,6 C 50 % 69 % 1011,7 hPa 0,0 l/m 7,2 km/h (2 Bft) W 0,00 h 0,0 UV-I 0 W/m 2,3 C 6,4 C 13,6 km/h (3 Bft)
17.03.2017 23:00 22,7 C 7,1 C 49 % 68 % 1011,6 hPa 0,0 l/m 7,4 km/h (2 Bft) W 0,00 h 0,0 UV-I 0 W/m 1,6 C 5,8 C 13,3 km/h (3 Bft)
18.03.2017 00:00 22,5 C 6,7 C 49 % 70 % 1010,7 hPa 0,0 l/m 3,7 km/h (1 Bft) W-SW 0,00 h 0,0 UV-I 0 W/m 1,6 C 6,5 C 8,2 km/h (2 Bft)
18.03.2017 01:00 22,3 C 6,4 C 50 % 75 % 1009,2 hPa 0,0 l/m 1,8 km/h (1 Bft) S 0,00 h 0,0 UV-I 0 W/m 2,2 C 6,4 C 5,2 km/h (1 Bft)
18.03.2017 02:00 22,3 C 5,8 C 50 % 86 % 1007,8 hPa 0,4 l/m 5,9 km/h (2 Bft) S-SW 0,00 h 0,0 UV-I 0 W/m 3,6 C 4,8 C 12,2 km/h (2 Bft)
18.03.2017 03:00 22,2 C 5,3 C 51 % 89 % 1007,0 hPa 2,2 l/m 11,6 km/h (2 Bft) W-SW 0,00 h 0,0 UV-I 0 W/m 3,7 C 1,6 C 20,0 km/h (4 Bft)
18.03.2017 04:00 22,2 C 5,0 C 51 % 91 % 1005,8 hPa 1,8 l/m 11,2 km/h (2 Bft) SW 0,00 h 0,0 UV-I 0 W/m 3,7 C 1,4 C 20,1 km/h (4 Bft)
18.03.2017 05:00 22,2 C 4,8 C 51 % 92 % 1005,1 hPa 1,2 l/m 12,2 km/h (2 Bft) W-SW 0,00 h 0,0 UV-I 0 W/m 3,7 C 0,7 C 21,2 km/h (4 Bft)
18.03.2017 06:00 22,1 C 4,9 C 51 % 92 % 1004,9 hPa 0,8 l/m 15,6 km/h (3 Bft) W-SW 0,00 h 0,0 UV-I 0 W/m 3,7 C -1,2 C 26,9 km/h (4 Bft)
18.03.2017 07:00 22,1 C 4,8 C 51 % 92 % 1004,8 hPa 0,4 l/m 11,5 km/h (2 Bft) SW 0,00 h 0,0 UV-I 8 W/m 3,6 C 1,1 C 20,8 km/h (4 Bft)
18.03.2017 08:00 22,2 C 5,1 C 52 % 94 % 1004,9 hPa 0,2 l/m 10,1 km/h (2 Bft) W-SW 0,00 h 0,0 UV-I 16 W/m 4,1 C 2,1 C 19,1 km/h (3 Bft)
18.03.2017 09:00 22,4 C 5,4 C 52 % 94 % 1005,0 hPa 0,4 l/m 10,2 km/h (2 Bft) W-SW 0,00 h 0,0 UV-I 29 W/m 4,5 C 2,4 C 17,5 km/h (3 Bft)
18.03.2017 10:00 22,6 C 5,6 C 53 % 93 % 1004,8 hPa 0,2 l/m 11,1 km/h (2 Bft) SW 0,00 h 0,0 UV-I 36 W/m 4,5 C 2,2 C 19,5 km/h (3 Bft)
18.03.2017 11:00 22,4 C 5,6 C 53 % 92 % 1004,6 hPa 0,2 l/m 10,6 km/h (2 Bft) SW 0,00 h 0,0 UV-I 32 W/m 4,5 C 2,4 C 20,2 km/h (4 Bft)
18.03.2017 12:00 22,4 C 5,7 C 52 % 94 % 1004,7 hPa 0,0 l/m 13,5 km/h (3 Bft) W-SW 0,00 h 0,0 UV-I 36 W/m 4,8 C 0,9 C 22,6 km/h (4 Bft)
18.03.2017 13:00 22,5 C 5,8 C 53 % 94 % 1005,1 hPa 0,2 l/m 13,0 km/h (3 Bft) W-SW 0,00 h 0,7 UV-I 61 W/m 4,9 C 1,3 C 21,7 km/h (4 Bft)
18.03.2017 14:00 22,7 C 6,2 C 55 % 94 % 1005,2 hPa 0,2 l/m 12,6 km/h (3 Bft) W-SW 0,00 h 0,6 UV-I 59 W/m 5,3 C 2,0 C 19,6 km/h (3 Bft)
18.03.2017 15:00 22,6 C 6,5 C 54 % 94 % 1005,3 hPa 0,0 l/m 12,3 km/h (3 Bft) W-SW 0,00 h 0,0 UV-I 22 W/m 5,6 C 2,5 C 19,7 km/h (3 Bft)
18.03.2017 16:00 22,7 C 6,7 C 54 % 94 % 1005,4 hPa 0,0 l/m 14,1 km/h (3 Bft) W-SW 0,00 h 0,0 UV-I 17 W/m 5,8 C 1,8 C 23,2 km/h (4 Bft)
18.03.2017 17:00 23,0 C 7,0 C 57 % 94 % 1005,6 hPa 0,0 l/m 16,2 km/h (3 Bft) W-SW 0,00 h 0,0 UV-I 13 W/m 6,1 C 1,1 C 26,3 km/h (4 Bft)
18.03.2017 18:00 23,2 C 7,2 C 57 % 94 % 1005,8 hPa 0,2 l/m 12,9 km/h (3 Bft) W-SW 0,00 h 0,0 UV-I 0 W/m 6,3 C 3,0 C 19,8 km/h (4 Bft)
18.03.2017 19:00 23,4 C 6,8 C 56 % 94 % 1006,8 hPa 2,6 l/m 6,1 km/h (2 Bft) N 0,00 h 0,0 UV-I 0 W/m 6,0 C 5,5 C 7,4 km/h (2 Bft)
18.03.2017 20:00 23,5 C 6,5 C 55 % 94 % 1007,2 hPa 0,4 l/m 3,1 km/h (1 Bft) W-SW 0,00 h 0,0 UV-I 0 W/m 5,6 C 6,4 C 6,5 km/h (2 Bft)
18.03.2017 21:00 23,4 C 6,2 C 56 % 94 % 1007,8 hPa 0,2 l/m 0,6 km/h (0 Bft) W-SW 0,00 h 0,0 UV-I 0 W/m 5,3 C 6,2 C 1,9 km/h (1 Bft)
18.03.2017 22:00 23,5 C 6,2 C 56 % 95 % 1008,4 hPa 0,2 l/m 0,9 km/h (0 Bft) W 0,00 h 0,0 UV-I 0 W/m 5,5 C 6,1 C 1,9 km/h (1 Bft)
18.03.2017 23:00 23,2 C 6,0 C 56 % 94 % 1009,0 hPa 0,4 l/m 8,0 km/h (2 Bft) W-NW 0,00 h 0,0 UV-I 0 W/m 5,1 C 4,0 C 13,8 km/h (3 Bft)
19.03.2017 00:00 22,9 C 5,6 C 56 % 93 % 1009,6 hPa 0,6 l/m 1,8 km/h (1 Bft) W 0,00 h 0,0 UV-I 0 W/m 4,5 C 5,6 C 5,2 km/h (1 Bft)
19.03.2017 01:00 22,7 C 5,4 C 56 % 93 % 1009,8 hPa 0,2 l/m 0,7 km/h (0 Bft) W-SW 0,00 h 0,0 UV-I 0 W/m 4,4 C 5,4 C 2,5 km/h (1 Bft)
19.03.2017 02:00 22,6 C 5,3 C 56 % 94 % 1009,8 hPa 0,0 l/m 0,9 km/h (0 Bft) SW 0,00 h 0,0 UV-I 0 W/m 4,4 C 5,3 C 2,5 km/h (1 Bft)
19.03.2017 03:00 22,6 C 5,4 C 56 % 94 % 1010,1 hPa 0,0 l/m 1,9 km/h (1 Bft) W-SW 0,00 h 0,0 UV-I 0 W/m 4,5 C 5,4 C 5,7 km/h (1 Bft)
19.03.2017 04:00 22,6 C 5,5 C 56 % 93 % 1010,5 hPa 0,2 l/m 0,4 km/h (0 Bft) W-SW 0,00 h 0,0 UV-I 0 W/m 4,6 C 5,5 C 0,9 km/h (0 Bft)
19.03.2017 05:00 22,4 C 5,4 C 56 % 95 % 1010,6 hPa 0,4 l/m 0,1 km/h (0 Bft) W-SW 0,00 h 0,0 UV-I 0 W/m 4,7 C 5,4 C 0,5 km/h (0 Bft)
19.03.2017 06:00 22,4 C 5,4 C 56 % 95 % 1010,7 hPa 0,4 l/m 0,2 km/h (0 Bft) W-SW 0,00 h 0,0 UV-I 12 W/m 4,8 C 5,4 C 1,0 km/h (0 Bft)
19.03.2017 07:00 22,5 C 5,6 C 57 % 96 % 1010,9 hPa 0,2 l/m 0,0 km/h (0 Bft) W-SW 0,00 h 0,0 UV-I 37 W/m 5,1 C 5,6 C 0,1 km/h (0 Bft)
19.03.2017 08:00 22,7 C 6,2 C 57 % 96 % 1011,0 hPa 0,2 l/m 0,1 km/h (0 Bft) S 0,00 h 0,6 UV-I 70 W/m 5,6 C 6,2 C 0,4 km/h (0 Bft)
19.03.2017 09:00 22,9 C 6,6 C 57 % 96 % 1010,6 hPa 0,0 l/m 2,0 km/h (1 Bft) S 0,02 h 0,7 UV-I 107 W/m 6,0 C 6,6 C 4,4 km/h (1 Bft)
19.03.2017 10:00 22,8 C 6,9 C 57 % 96 % 1010,3 hPa 0,2 l/m 2,4 km/h (1 Bft) S 0,00 h 0,7 UV-I 86 W/m 6,3 C 6,9 C 5,8 km/h (2 Bft)
19.03.2017 11:00 22,7 C 7,9 C 57 % 97 % 1009,9 hPa 0,0 l/m 3,1 km/h (1 Bft) SW 0,00 h 0,7 UV-I 81 W/m 7,4 C 7,8 C 7,5 km/h (2 Bft)
19.03.2017 12:00 22,6 C 8,9 C 57 % 97 % 1009,5 hPa 0,2 l/m 5,7 km/h (1 Bft) W-SW 0,00 h 0,7 UV-I 83 W/m 8,4 C 8,2 C 12,4 km/h (3 Bft)
19.03.2017 13:00 22,6 C 9,4 C 56 % 95 % 1008,9 hPa 0,0 l/m 9,5 km/h (2 Bft) W-SW 0,00 h 0,7 UV-I 73 W/m 8,7 C 7,3 C 18,6 km/h (3 Bft)
19.03.2017 14:00 22,5 C 9,5 C 56 % 95 % 1008,7 hPa 0,0 l/m 8,6 km/h (2 Bft) W 0,00 h 0,6 UV-I 37 W/m 8,7 C 7,6 C 16,1 km/h (3 Bft)
19.03.2017 15:00 22,9 C 9,8 C 57 % 94 % 1008,7 hPa 0,0 l/m 10,0 km/h (2 Bft) W-SW 0,00 h 0,5 UV-I 47 W/m 8,9 C 7,4 C 18,8 km/h (3 Bft)
19.03.2017 16:00 23,3 C 10,0 C 58 % 94 % 1008,3 hPa 0,2 l/m 14,0 km/h (3 Bft) W-SW 0,00 h 0,5 UV-I 46 W/m 9,1 C 5,8 C 23,1 km/h (4 Bft)
19.03.2017 17:00 23,6 C 10,0 C 59 % 93 % 1008,5 hPa 0,0 l/m 13,3 km/h (3 Bft) W-SW 0,00 h 0,0 UV-I 13 W/m 9,0 C 6,1 C 20,9 km/h (4 Bft)
19.03.2017 18:00 23,7 C 10,0 C 59 % 92 % 1008,5 hPa 0,0 l/m 11,6 km/h (2 Bft) W-SW 0,00 h 0,0 UV-I 0 W/m 8,7 C 6,8 C 20,0 km/h (4 Bft)
19.03.2017 19:00 23,8 C 9,9 C 59 % 91 % 1008,9 hPa 0,0 l/m 7,5 km/h (2 Bft) W-SW 0,00 h 0,0 UV-I 0 W/m 8,5 C 8,5 C 15,5 km/h (3 Bft)
19.03.2017 20:00 23,7 C 9,8 C 60 % 92 % 1008,9 hPa 0,0 l/m 10,3 km/h (2 Bft) W-SW 0,00 h 0,0 UV-I 0 W/m 8,5 C 7,2 C 17,0 km/h (3 Bft)
19.03.2017 21:00 23,7 C 9,8 C 60 % 91 % 1009,3 hPa 0,0 l/m 13,2 km/h (3 Bft) W-SW 0,00 h 0,0 UV-I 0 W/m 8,3 C 5,8 C 21,0 km/h (4 Bft)
19.03.2017 22:00 23,7 C 9,8 C 60 % 88 % 1009,0 hPa 0,0 l/m 19,1 km/h (3 Bft) W-SW 0,00 h 0,0 UV-I 0 W/m 7,8 C 3,4 C 28,5 km/h (4 Bft)
19.03.2017 23:00 23,6 C 9,5 C 60 % 86 % 1009,0 hPa 0,0 l/m 18,1 km/h (3 Bft) W 0,00 h 0,0 UV-I 0 W/m 7,3 C 3,4 C 25,7 km/h (4 Bft)
Min-Datum _ 16.03.17 13.03.17 16.03.17 16.03.17 18.03.17 - 13.03.17 - - - - 13.03.17 18.03.17 13.03.17
_ Min-Zeit 17:27 06:49 16:35 16:22 11:44 - 00:05 - - - - 06:49 06:32 00:38
Minimum _ 20,7 C -2,9 C 28 % 29 % 1004,2 hPa - 0,0 km/h (0 Bft) - - - - -4,3 C -5,3 C 0,0 km/h (0 Bft)
Max-Datum _ 17.03.17 16.03.17 19.03.17 19.03.17 14.03.17 18.03.17 19.03.17 - 13.03.17 16.03.17 17.03.17 19.03.17 16.03.17 18.03.17
_ Max-Zeit 20:03 14:54 20:38 11:16 09:03 19:07 23:49 - 10:07 12:16 13:06 16:25 14:54 18:02
Maximum _ 29,6 C 16,5 C 61 % 97 % 1032,2 hPa 2,6 l/m 30,6 km/h
W (5 Bft)
- 0,03 h 3,4 UV-I 729 W/m 9,2 C 16,5 C 43,5 km/h
W (6 Bft)
Durchschnitt _ 23,5 C 6,1 C 48 % 79 % 1020,2 hPa #15,0 l/m 3,2 km/h (1 Bft) W-SW #34:39 h 1,3 UV-I 182 W/m 2,3 C 5,4 C 5,5 km/h (1 Bft)